sensor_id;sensor_type;location;lat;lon;timestamp;temperature;humidity
12911;DHT22;6523;49.758;6.120;2023-05-07T00:00:23;11.30;99.90
12911;DHT22;6523;49.758;6.120;2023-05-07T00:02:48;11.50;99.90
12911;DHT22;6523;49.758;6.120;2023-05-07T00:05:14;11.40;99.90
12911;DHT22;6523;49.758;6.120;2023-05-07T00:07:40;11.30;99.90
12911;DHT22;6523;49.758;6.120;2023-05-07T00:10:06;11.10;99.90
12911;DHT22;6523;49.758;6.120;2023-05-07T00:12:32;11.00;99.90
12911;DHT22;6523;49.758;6.120;2023-05-07T00:15:00;11.00;99.90
12911;DHT22;6523;49.758;6.120;2023-05-07T00:17:25;11.20;99.90
12911;DHT22;6523;49.758;6.120;2023-05-07T00:19:51;11.10;99.90
12911;DHT22;6523;49.758;6.120;2023-05-07T00:22:16;10.80;99.90
12911;DHT22;6523;49.758;6.120;2023-05-07T00:24:42;10.80;99.90
12911;DHT22;6523;49.758;6.120;2023-05-07T00:27:08;10.80;99.90
12911;DHT22;6523;49.758;6.120;2023-05-07T00:29:33;10.90;99.90
12911;DHT22;6523;49.758;6.120;2023-05-07T00:31:59;10.90;99.90
12911;DHT22;6523;49.758;6.120;2023-05-07T00:34:25;10.90;99.90
12911;DHT22;6523;49.758;6.120;2023-05-07T00:36:50;10.70;99.90
12911;DHT22;6523;49.758;6.120;2023-05-07T00:39:16;10.60;99.90
12911;DHT22;6523;49.758;6.120;2023-05-07T00:41:41;10.80;99.90
12911;DHT22;6523;49.758;6.120;2023-05-07T00:44:07;10.90;99.90
12911;DHT22;6523;49.758;6.120;2023-05-07T00:46:32;10.90;99.90
12911;DHT22;6523;49.758;6.120;2023-05-07T00:48:59;10.80;99.90
12911;DHT22;6523;49.758;6.120;2023-05-07T00:51:25;10.60;99.90
12911;DHT22;6523;49.758;6.120;2023-05-07T00:53:53;10.70;99.90
12911;DHT22;6523;49.758;6.120;2023-05-07T00:56:20;10.60;99.90
12911;DHT22;6523;49.758;6.120;2023-05-07T00:58:47;10.80;99.90
12911;DHT22;6523;49.758;6.120;2023-05-07T01:01:12;10.90;99.90
12911;DHT22;6523;49.758;6.120;2023-05-07T01:03:38;10.90;99.90
12911;DHT22;6523;49.758;6.120;2023-05-07T01:06:04;10.90;99.90
12911;DHT22;6523;49.758;6.120;2023-05-07T01:08:32;10.80;99.90
12911;DHT22;6523;49.758;6.120;2023-05-07T01:10:58;10.50;99.90
12911;DHT22;6523;49.758;6.120;2023-05-07T01:13:25;10.30;99.90
12911;DHT22;6523;49.758;6.120;2023-05-07T01:15:51;10.20;99.90
12911;DHT22;6523;49.758;6.120;2023-05-07T01:18:16;10.30;99.90
12911;DHT22;6523;49.758;6.120;2023-05-07T01:20:42;10.20;99.90
12911;DHT22;6523;49.758;6.120;2023-05-07T01:23:08;10.20;99.90
12911;DHT22;6523;49.758;6.120;2023-05-07T01:25:35;10.40;99.90
12911;DHT22;6523;49.758;6.120;2023-05-07T01:28:01;10.40;99.90
12911;DHT22;6523;49.758;6.120;2023-05-07T01:30:27;10.40;99.90
12911;DHT22;6523;49.758;6.120;2023-05-07T01:32:59;10.40;99.90
12911;DHT22;6523;49.758;6.120;2023-05-07T01:35:30;10.30;99.90
12911;DHT22;6523;49.758;6.120;2023-05-07T01:37:57;10.10;99.90
12911;DHT22;6523;49.758;6.120;2023-05-07T01:40:24;10.10;99.90
12911;DHT22;6523;49.758;6.120;2023-05-07T01:42:51;10.20;99.90
12911;DHT22;6523;49.758;6.120;2023-05-07T01:45:17;10.30;99.90
12911;DHT22;6523;49.758;6.120;2023-05-07T01:47:43;10.40;99.90
12911;DHT22;6523;49.758;6.120;2023-05-07T01:50:10;10.50;99.90
12911;DHT22;6523;49.758;6.120;2023-05-07T01:52:39;10.40;99.90
12911;DHT22;6523;49.758;6.120;2023-05-07T01:55:06;10.20;99.90
12911;DHT22;6523;49.758;6.120;2023-05-07T01:57:31;9.70;99.90
12911;DHT22;6523;49.758;6.120;2023-05-07T01:59:57;9.60;99.90
12911;DHT22;6523;49.758;6.120;2023-05-07T02:02:22;9.80;99.90
12911;DHT22;6523;49.758;6.120;2023-05-07T02:04:48;9.90;99.90
12911;DHT22;6523;49.758;6.120;2023-05-07T02:07:14;9.80;99.90
12911;DHT22;6523;49.758;6.120;2023-05-07T02:09:39;9.90;99.90
12911;DHT22;6523;49.758;6.120;2023-05-07T02:12:05;9.90;99.90
12911;DHT22;6523;49.758;6.120;2023-05-07T02:14:30;10.00;99.90
12911;DHT22;6523;49.758;6.120;2023-05-07T02:16:56;10.00;99.90
12911;DHT22;6523;49.758;6.120;2023-05-07T02:19:21;10.00;99.90
12911;DHT22;6523;49.758;6.120;2023-05-07T02:21:47;10.00;99.90
12911;DHT22;6523;49.758;6.120;2023-05-07T02:24:13;9.70;99.90
12911;DHT22;6523;49.758;6.120;2023-05-07T02:26:40;9.70;99.90
12911;DHT22;6523;49.758;6.120;2023-05-07T02:29:06;9.50;99.90
12911;DHT22;6523;49.758;6.120;2023-05-07T02:31:31;9.50;99.90
12911;DHT22;6523;49.758;6.120;2023-05-07T02:33:59;9.50;99.90
12911;DHT22;6523;49.758;6.120;2023-05-07T02:36:24;9.30;99.90
12911;DHT22;6523;49.758;6.120;2023-05-07T02:38:50;9.20;99.90
12911;DHT22;6523;49.758;6.120;2023-05-07T02:41:16;9.00;99.90
12911;DHT22;6523;49.758;6.120;2023-05-07T02:43:41;9.30;99.90
12911;DHT22;6523;49.758;6.120;2023-05-07T02:46:08;9.50;99.90
12911;DHT22;6523;49.758;6.120;2023-05-07T02:48:34;9.50;99.90
12911;DHT22;6523;49.758;6.120;2023-05-07T02:51:01;9.50;99.90
12911;DHT22;6523;49.758;6.120;2023-05-07T02:53:27;9.40;99.90
12911;DHT22;6523;49.758;6.120;2023-05-07T02:55:53;9.20;99.90
12911;DHT22;6523;49.758;6.120;2023-05-07T02:58:19;8.90;99.90
12911;DHT22;6523;49.758;6.120;2023-05-07T03:00:45;8.90;99.90
12911;DHT22;6523;49.758;6.120;2023-05-07T03:03:10;9.10;99.90
12911;DHT22;6523;49.758;6.120;2023-05-07T03:05:36;9.20;99.90
12911;DHT22;6523;49.758;6.120;2023-05-07T03:08:02;9.30;99.90
12911;DHT22;6523;49.758;6.120;2023-05-07T03:10:29;9.20;99.90
12911;DHT22;6523;49.758;6.120;2023-05-07T03:12:54;9.20;99.90
12911;DHT22;6523;49.758;6.120;2023-05-07T03:15:20;8.90;99.90
12911;DHT22;6523;49.758;6.120;2023-05-07T03:17:47;8.80;99.90
12911;DHT22;6523;49.758;6.120;2023-05-07T03:20:12;9.10;99.90
12911;DHT22;6523;49.758;6.120;2023-05-07T03:22:38;9.20;99.90
12911;DHT22;6523;49.758;6.120;2023-05-07T03:25:04;9.30;99.90
12911;DHT22;6523;49.758;6.120;2023-05-07T03:27:30;9.30;99.90
12911;DHT22;6523;49.758;6.120;2023-05-07T03:29:55;9.10;99.90
12911;DHT22;6523;49.758;6.120;2023-05-07T03:32:21;9.10;99.90
12911;DHT22;6523;49.758;6.120;2023-05-07T03:34:46;9.00;99.90
12911;DHT22;6523;49.758;6.120;2023-05-07T03:37:12;9.00;99.90
12911;DHT22;6523;49.758;6.120;2023-05-07T03:39:37;8.90;99.90
12911;DHT22;6523;49.758;6.120;2023-05-07T03:42:03;9.10;99.90
12911;DHT22;6523;49.758;6.120;2023-05-07T03:44:29;9.10;99.90
12911;DHT22;6523;49.758;6.120;2023-05-07T03:46:54;9.00;99.90
12911;DHT22;6523;49.758;6.120;2023-05-07T03:49:20;9.10;99.90
12911;DHT22;6523;49.758;6.120;2023-05-07T03:51:46;9.20;99.90
12911;DHT22;6523;49.758;6.120;2023-05-07T03:54:12;9.20;99.90
12911;DHT22;6523;49.758;6.120;2023-05-07T03:56:37;9.20;99.90
12911;DHT22;6523;49.758;6.120;2023-05-07T03:59:03;9.20;99.90
12911;DHT22;6523;49.758;6.120;2023-05-07T04:01:28;9.20;99.90
12911;DHT22;6523;49.758;6.120;2023-05-07T04:03:54;9.30;99.90
12911;DHT22;6523;49.758;6.120;2023-05-07T04:06:20;9.00;99.90
12911;DHT22;6523;49.758;6.120;2023-05-07T04:08:46;9.10;99.90
12911;DHT22;6523;49.758;6.120;2023-05-07T04:11:11;9.10;99.90
12911;DHT22;6523;49.758;6.120;2023-05-07T04:13:37;8.90;99.90
12911;DHT22;6523;49.758;6.120;2023-05-07T04:16:03;8.90;99.90
12911;DHT22;6523;49.758;6.120;2023-05-07T04:18:29;8.90;99.90
12911;DHT22;6523;49.758;6.120;2023-05-07T04:20:54;8.80;99.90
12911;DHT22;6523;49.758;6.120;2023-05-07T04:23:20;8.80;99.90
12911;DHT22;6523;49.758;6.120;2023-05-07T04:25:46;8.90;99.90
12911;DHT22;6523;49.758;6.120;2023-05-07T04:28:12;8.80;99.90
12911;DHT22;6523;49.758;6.120;2023-05-07T04:30:38;9.00;99.90
12911;DHT22;6523;49.758;6.120;2023-05-07T04:33:04;8.90;99.90
12911;DHT22;6523;49.758;6.120;2023-05-07T04:35:29;8.90;99.90
12911;DHT22;6523;49.758;6.120;2023-05-07T04:37:55;8.80;99.90
12911;DHT22;6523;49.758;6.120;2023-05-07T04:40:20;8.90;99.90
12911;DHT22;6523;49.758;6.120;2023-05-07T04:42:46;9.00;99.90
12911;DHT22;6523;49.758;6.120;2023-05-07T04:45:11;9.00;99.90
12911;DHT22;6523;49.758;6.120;2023-05-07T04:47:38;9.00;99.90
12911;DHT22;6523;49.758;6.120;2023-05-07T04:50:04;9.00;99.90
12911;DHT22;6523;49.758;6.120;2023-05-07T04:52:30;8.90;99.90
12911;DHT22;6523;49.758;6.120;2023-05-07T04:54:56;8.90;99.90
12911;DHT22;6523;49.758;6.120;2023-05-07T04:57:22;9.10;99.90
12911;DHT22;6523;49.758;6.120;2023-05-07T04:59:47;9.20;99.90
12911;DHT22;6523;49.758;6.120;2023-05-07T05:02:13;9.30;99.90
12911;DHT22;6523;49.758;6.120;2023-05-07T05:04:38;9.40;99.90
12911;DHT22;6523;49.758;6.120;2023-05-07T05:07:04;9.50;99.90
12911;DHT22;6523;49.758;6.120;2023-05-07T05:09:30;9.40;99.90
12911;DHT22;6523;49.758;6.120;2023-05-07T05:11:55;9.40;99.90
12911;DHT22;6523;49.758;6.120;2023-05-07T05:14:21;9.40;99.90
12911;DHT22;6523;49.758;6.120;2023-05-07T05:16:47;9.50;99.90
12911;DHT22;6523;49.758;6.120;2023-05-07T05:19:12;9.60;99.90
12911;DHT22;6523;49.758;6.120;2023-05-07T05:21:38;9.70;99.90
12911;DHT22;6523;49.758;6.120;2023-05-07T05:24:03;9.80;99.90
12911;DHT22;6523;49.758;6.120;2023-05-07T05:26:29;10.00;99.90
12911;DHT22;6523;49.758;6.120;2023-05-07T05:28:54;10.10;99.90
12911;DHT22;6523;49.758;6.120;2023-05-07T05:31:20;10.00;99.90
12911;DHT22;6523;49.758;6.120;2023-05-07T05:33:46;9.90;99.90
12911;DHT22;6523;49.758;6.120;2023-05-07T05:36:12;9.90;99.90
12911;DHT22;6523;49.758;6.120;2023-05-07T05:38:38;9.80;99.90
12911;DHT22;6523;49.758;6.120;2023-05-07T05:41:04;9.90;99.90
12911;DHT22;6523;49.758;6.120;2023-05-07T05:43:30;9.90;99.90
12911;DHT22;6523;49.758;6.120;2023-05-07T05:45:56;10.10;99.90
12911;DHT22;6523;49.758;6.120;2023-05-07T05:48:22;10.20;99.90
12911;DHT22;6523;49.758;6.120;2023-05-07T05:50:48;10.30;99.90
12911;DHT22;6523;49.758;6.120;2023-05-07T05:53:13;10.50;99.90
12911;DHT22;6523;49.758;6.120;2023-05-07T05:55:39;10.60;99.90
12911;DHT22;6523;49.758;6.120;2023-05-07T05:58:05;10.80;99.90
12911;DHT22;6523;49.758;6.120;2023-05-07T06:00:30;10.80;99.90
12911;DHT22;6523;49.758;6.120;2023-05-07T06:02:56;11.00;99.90
12911;DHT22;6523;49.758;6.120;2023-05-07T06:05:21;11.10;99.90
12911;DHT22;6523;49.758;6.120;2023-05-07T06:07:47;11.30;99.90
12911;DHT22;6523;49.758;6.120;2023-05-07T06:10:12;11.30;99.90
12911;DHT22;6523;49.758;6.120;2023-05-07T06:12:38;11.30;99.90
12911;DHT22;6523;49.758;6.120;2023-05-07T06:15:04;11.30;99.90
12911;DHT22;6523;49.758;6.120;2023-05-07T06:17:29;11.30;99.90
12911;DHT22;6523;49.758;6.120;2023-05-07T06:19:55;11.50;99.90
12911;DHT22;6523;49.758;6.120;2023-05-07T06:22:21;11.80;99.90
12911;DHT22;6523;49.758;6.120;2023-05-07T06:24:47;12.00;99.90
12911;DHT22;6523;49.758;6.120;2023-05-07T06:27:12;12.10;99.90
12911;DHT22;6523;49.758;6.120;2023-05-07T06:29:38;12.30;99.90
12911;DHT22;6523;49.758;6.120;2023-05-07T06:32:10;12.40;99.90
12911;DHT22;6523;49.758;6.120;2023-05-07T06:34:36;12.40;99.90
12911;DHT22;6523;49.758;6.120;2023-05-07T06:37:02;12.50;99.90
12911;DHT22;6523;49.758;6.120;2023-05-07T06:39:28;12.50;99.90
12911;DHT22;6523;49.758;6.120;2023-05-07T06:41:54;12.30;99.90
12911;DHT22;6523;49.758;6.120;2023-05-07T06:44:19;12.30;99.90
12911;DHT22;6523;49.758;6.120;2023-05-07T06:46:45;12.50;99.90
12911;DHT22;6523;49.758;6.120;2023-05-07T06:49:14;12.50;99.90
12911;DHT22;6523;49.758;6.120;2023-05-07T06:51:39;12.40;99.90
12911;DHT22;6523;49.758;6.120;2023-05-07T06:54:05;12.70;99.90
12911;DHT22;6523;49.758;6.120;2023-05-07T06:56:31;12.80;99.90
12911;DHT22;6523;49.758;6.120;2023-05-07T06:58:57;12.60;99.90
12911;DHT22;6523;49.758;6.120;2023-05-07T07:01:22;12.60;99.90
12911;DHT22;6523;49.758;6.120;2023-05-07T07:03:48;12.60;99.90
12911;DHT22;6523;49.758;6.120;2023-05-07T07:06:14;12.70;99.90
12911;DHT22;6523;49.758;6.120;2023-05-07T07:08:39;12.70;99.90
12911;DHT22;6523;49.758;6.120;2023-05-07T07:11:05;12.70;99.90
12911;DHT22;6523;49.758;6.120;2023-05-07T07:13:31;12.80;99.90
12911;DHT22;6523;49.758;6.120;2023-05-07T07:15:57;12.90;99.90
12911;DHT22;6523;49.758;6.120;2023-05-07T07:18:23;13.00;99.90
12911;DHT22;6523;49.758;6.120;2023-05-07T07:20:48;13.30;99.90
12911;DHT22;6523;49.758;6.120;2023-05-07T07:23:14;13.50;99.90
12911;DHT22;6523;49.758;6.120;2023-05-07T07:25:39;13.60;99.90
12911;DHT22;6523;49.758;6.120;2023-05-07T07:28:06;13.70;99.90
12911;DHT22;6523;49.758;6.120;2023-05-07T07:30:31;13.70;99.90
12911;DHT22;6523;49.758;6.120;2023-05-07T07:32:57;13.70;99.90
12911;DHT22;6523;49.758;6.120;2023-05-07T07:35:29;14.00;99.90
12911;DHT22;6523;49.758;6.120;2023-05-07T07:37:55;14.10;99.90
12911;DHT22;6523;49.758;6.120;2023-05-07T07:40:20;14.30;99.90
12911;DHT22;6523;49.758;6.120;2023-05-07T07:42:46;14.50;99.90
12911;DHT22;6523;49.758;6.120;2023-05-07T07:45:11;14.60;99.90
12911;DHT22;6523;49.758;6.120;2023-05-07T07:47:38;14.90;99.90
12911;DHT22;6523;49.758;6.120;2023-05-07T07:50:04;14.80;99.90
12911;DHT22;6523;49.758;6.120;2023-05-07T07:52:30;15.00;99.90
12911;DHT22;6523;49.758;6.120;2023-05-07T07:54:55;15.30;99.90
12911;DHT22;6523;49.758;6.120;2023-05-07T07:57:21;15.70;99.90
12911;DHT22;6523;49.758;6.120;2023-05-07T07:59:46;15.70;99.90
12911;DHT22;6523;49.758;6.120;2023-05-07T08:02:12;15.90;99.90
12911;DHT22;6523;49.758;6.120;2023-05-07T08:04:37;16.20;99.90
12911;DHT22;6523;49.758;6.120;2023-05-07T08:07:03;15.90;99.90
12911;DHT22;6523;49.758;6.120;2023-05-07T08:09:29;15.80;99.90
12911;DHT22;6523;49.758;6.120;2023-05-07T08:11:54;15.90;99.90
12911;DHT22;6523;49.758;6.120;2023-05-07T08:14:20;16.40;99.90
12911;DHT22;6523;49.758;6.120;2023-05-07T08:16:46;16.60;99.90
12911;DHT22;6523;49.758;6.120;2023-05-07T08:19:11;16.50;99.90
12911;DHT22;6523;49.758;6.120;2023-05-07T08:21:40;16.40;99.90
12911;DHT22;6523;49.758;6.120;2023-05-07T08:24:06;16.60;99.90
12911;DHT22;6523;49.758;6.120;2023-05-07T08:26:31;16.70;99.90
12911;DHT22;6523;49.758;6.120;2023-05-07T08:28:57;16.80;99.90
12911;DHT22;6523;49.758;6.120;2023-05-07T08:31:22;16.60;99.90
12911;DHT22;6523;49.758;6.120;2023-05-07T08:33:48;16.60;99.90
12911;DHT22;6523;49.758;6.120;2023-05-07T08:36:13;16.70;99.90
12911;DHT22;6523;49.758;6.120;2023-05-07T08:38:39;17.10;99.90
12911;DHT22;6523;49.758;6.120;2023-05-07T08:41:10;17.20;99.90
12911;DHT22;6523;49.758;6.120;2023-05-07T08:43:36;17.20;99.90
12911;DHT22;6523;49.758;6.120;2023-05-07T08:46:04;17.20;99.90
12911;DHT22;6523;49.758;6.120;2023-05-07T08:48:31;17.40;99.90
12911;DHT22;6523;49.758;6.120;2023-05-07T08:50:58;17.50;99.90
12911;DHT22;6523;49.758;6.120;2023-05-07T08:53:24;17.50;99.90
12911;DHT22;6523;49.758;6.120;2023-05-07T08:55:51;17.60;99.90
12911;DHT22;6523;49.758;6.120;2023-05-07T08:58:17;17.40;99.90
12911;DHT22;6523;49.758;6.120;2023-05-07T09:00:43;17.40;99.90
12911;DHT22;6523;49.758;6.120;2023-05-07T09:03:09;17.90;99.90
12911;DHT22;6523;49.758;6.120;2023-05-07T09:05:37;18.30;99.90
12911;DHT22;6523;49.758;6.120;2023-05-07T09:08:06;18.60;99.90
12911;DHT22;6523;49.758;6.120;2023-05-07T09:10:33;19.10;99.90
12911;DHT22;6523;49.758;6.120;2023-05-07T09:12:59;19.00;99.90
12911;DHT22;6523;49.758;6.120;2023-05-07T09:15:26;18.90;99.90
12911;DHT22;6523;49.758;6.120;2023-05-07T09:17:52;19.30;99.90
12911;DHT22;6523;49.758;6.120;2023-05-07T09:20:17;19.60;99.90
12911;DHT22;6523;49.758;6.120;2023-05-07T09:22:43;20.10;99.90
12911;DHT22;6523;49.758;6.120;2023-05-07T09:25:09;20.30;99.90
12911;DHT22;6523;49.758;6.120;2023-05-07T09:27:35;20.10;99.90
12911;DHT22;6523;49.758;6.120;2023-05-07T09:30:05;20.10;99.90
12911;DHT22;6523;49.758;6.120;2023-05-07T09:32:35;20.50;99.90
12911;DHT22;6523;49.758;6.120;2023-05-07T09:35:01;20.80;99.90
12911;DHT22;6523;49.758;6.120;2023-05-07T09:37:27;20.80;99.90
12911;DHT22;6523;49.758;6.120;2023-05-07T09:39:54;21.20;99.90
12911;DHT22;6523;49.758;6.120;2023-05-07T09:42:23;21.30;99.90
12911;DHT22;6523;49.758;6.120;2023-05-07T09:44:50;20.50;99.90
12911;DHT22;6523;49.758;6.120;2023-05-07T09:47:19;20.60;99.90
12911;DHT22;6523;49.758;6.120;2023-05-07T09:49:47;21.30;99.90
12911;DHT22;6523;49.758;6.120;2023-05-07T09:52:13;21.60;99.90
12911;DHT22;6523;49.758;6.120;2023-05-07T09:54:40;21.40;99.90
12911;DHT22;6523;49.758;6.120;2023-05-07T09:57:11;21.00;99.90
12911;DHT22;6523;49.758;6.120;2023-05-07T09:59:37;21.20;99.90
12911;DHT22;6523;49.758;6.120;2023-05-07T10:02:04;21.60;99.90
12911;DHT22;6523;49.758;6.120;2023-05-07T10:04:31;21.40;99.90
12911;DHT22;6523;49.758;6.120;2023-05-07T10:06:57;21.50;99.90
12911;DHT22;6523;49.758;6.120;2023-05-07T10:09:26;22.10;99.90
12911;DHT22;6523;49.758;6.120;2023-05-07T10:11:52;22.20;99.90
12911;DHT22;6523;49.758;6.120;2023-05-07T10:14:20;22.40;99.90
12911;DHT22;6523;49.758;6.120;2023-05-07T10:16:47;22.20;99.90
12911;DHT22;6523;49.758;6.120;2023-05-07T10:19:14;21.80;99.90
12911;DHT22;6523;49.758;6.120;2023-05-07T10:21:44;21.60;99.90
12911;DHT22;6523;49.758;6.120;2023-05-07T10:24:16;21.70;99.90
12911;DHT22;6523;49.758;6.120;2023-05-07T10:26:44;22.40;99.90
12911;DHT22;6523;49.758;6.120;2023-05-07T10:29:33;23.10;99.90
12911;DHT22;6523;49.758;6.120;2023-05-07T10:34:54;24.00;99.90
12911;DHT22;6523;49.758;6.120;2023-05-07T10:37:22;24.30;99.90
12911;DHT22;6523;49.758;6.120;2023-05-07T10:39:48;24.20;99.90
12911;DHT22;6523;49.758;6.120;2023-05-07T10:42:14;24.30;99.90
12911;DHT22;6523;49.758;6.120;2023-05-07T10:44:40;24.40;99.90
12911;DHT22;6523;49.758;6.120;2023-05-07T10:52:17;23.50;99.90
12911;DHT22;6523;49.758;6.120;2023-05-07T10:54:43;23.60;99.90
12911;DHT22;6523;49.758;6.120;2023-05-07T10:59:57;23.20;99.90
12911;DHT22;6523;49.758;6.120;2023-05-07T11:02:23;22.70;99.90
12911;DHT22;6523;49.758;6.120;2023-05-07T11:05:22;22.50;99.90
12911;DHT22;6523;49.758;6.120;2023-05-07T11:08:01;22.70;99.90
12911;DHT22;6523;49.758;6.120;2023-05-07T11:10:53;22.40;99.90
12911;DHT22;6523;49.758;6.120;2023-05-07T11:13:45;22.20;99.90
12911;DHT22;6523;49.758;6.120;2023-05-07T11:16:21;21.80;99.90
12911;DHT22;6523;49.758;6.120;2023-05-07T11:18:52;21.60;99.90
12911;DHT22;6523;49.758;6.120;2023-05-07T11:21:38;21.80;99.90
12911;DHT22;6523;49.758;6.120;2023-05-07T11:24:06;21.90;99.90
12911;DHT22;6523;49.758;6.120;2023-05-07T11:26:45;21.60;99.90
12911;DHT22;6523;49.758;6.120;2023-05-07T11:29:12;21.40;99.90
12911;DHT22;6523;49.758;6.120;2023-05-07T11:31:38;21.10;99.90
12911;DHT22;6523;49.758;6.120;2023-05-07T11:34:04;21.20;99.90
12911;DHT22;6523;49.758;6.120;2023-05-07T11:36:32;21.30;99.90
12911;DHT22;6523;49.758;6.120;2023-05-07T11:38:57;21.30;99.90
12911;DHT22;6523;49.758;6.120;2023-05-07T11:41:33;21.30;99.90
12911;DHT22;6523;49.758;6.120;2023-05-07T11:44:00;21.20;99.90
12911;DHT22;6523;49.758;6.120;2023-05-07T11:46:27;21.20;99.90
12911;DHT22;6523;49.758;6.120;2023-05-07T11:48:53;20.90;99.90
12911;DHT22;6523;49.758;6.120;2023-05-07T11:51:20;20.60;99.90
12911;DHT22;6523;49.758;6.120;2023-05-07T11:53:46;20.50;99.90
12911;DHT22;6523;49.758;6.120;2023-05-07T11:56:13;20.50;99.90
12911;DHT22;6523;49.758;6.120;2023-05-07T11:58:40;20.60;99.90
12911;DHT22;6523;49.758;6.120;2023-05-07T12:01:08;20.70;99.90
12911;DHT22;6523;49.758;6.120;2023-05-07T12:03:35;21.00;99.90
12911;DHT22;6523;49.758;6.120;2023-05-07T12:06:01;20.80;99.90
12911;DHT22;6523;49.758;6.120;2023-05-07T12:08:27;20.50;99.90
12911;DHT22;6523;49.758;6.120;2023-05-07T12:10:53;20.50;99.90
12911;DHT22;6523;49.758;6.120;2023-05-07T12:13:22;20.40;99.90
12911;DHT22;6523;49.758;6.120;2023-05-07T12:15:55;20.40;99.90
12911;DHT22;6523;49.758;6.120;2023-05-07T12:18:22;20.70;99.90
12911;DHT22;6523;49.758;6.120;2023-05-07T12:20:48;20.60;99.90
12911;DHT22;6523;49.758;6.120;2023-05-07T12:23:15;20.80;99.90
12911;DHT22;6523;49.758;6.120;2023-05-07T12:25:42;20.70;99.90
12911;DHT22;6523;49.758;6.120;2023-05-07T12:28:16;20.70;99.90
12911;DHT22;6523;49.758;6.120;2023-05-07T12:30:42;20.70;99.90
12911;DHT22;6523;49.758;6.120;2023-05-07T12:33:08;21.40;99.90
12911;DHT22;6523;49.758;6.120;2023-05-07T12:35:42;21.60;99.90
12911;DHT22;6523;49.758;6.120;2023-05-07T12:38:12;21.70;99.90
12911;DHT22;6523;49.758;6.120;2023-05-07T12:40:47;22.20;99.90
12911;DHT22;6523;49.758;6.120;2023-05-07T12:43:20;21.80;99.90
12911;DHT22;6523;49.758;6.120;2023-05-07T12:45:50;21.60;99.90
12911;DHT22;6523;49.758;6.120;2023-05-07T12:48:16;21.30;99.90
12911;DHT22;6523;49.758;6.120;2023-05-07T12:50:41;21.50;99.90
12911;DHT22;6523;49.758;6.120;2023-05-07T12:53:09;21.30;99.90
12911;DHT22;6523;49.758;6.120;2023-05-07T12:55:45;21.30;99.90
12911;DHT22;6523;49.758;6.120;2023-05-07T12:58:15;21.70;99.90
12911;DHT22;6523;49.758;6.120;2023-05-07T13:00:41;21.20;99.90
12911;DHT22;6523;49.758;6.120;2023-05-07T13:03:08;20.80;99.90
12911;DHT22;6523;49.758;6.120;2023-05-07T13:05:34;21.00;99.90
12911;DHT22;6523;49.758;6.120;2023-05-07T13:08:00;21.20;99.90
12911;DHT22;6523;49.758;6.120;2023-05-07T13:10:27;20.70;99.90
12911;DHT22;6523;49.758;6.120;2023-05-07T13:12:52;20.50;99.90
12911;DHT22;6523;49.758;6.120;2023-05-07T13:15:18;20.30;99.90
12911;DHT22;6523;49.758;6.120;2023-05-07T13:17:44;20.20;99.90
12911;DHT22;6523;49.758;6.120;2023-05-07T13:20:10;20.10;99.90
12911;DHT22;6523;49.758;6.120;2023-05-07T13:22:37;20.20;99.90
12911;DHT22;6523;49.758;6.120;2023-05-07T13:25:02;20.30;99.90
12911;DHT22;6523;49.758;6.120;2023-05-07T13:27:28;20.20;99.90
12911;DHT22;6523;49.758;6.120;2023-05-07T13:29:56;20.00;99.90
12911;DHT22;6523;49.758;6.120;2023-05-07T13:32:21;20.00;99.90
12911;DHT22;6523;49.758;6.120;2023-05-07T13:34:47;19.90;99.90
12911;DHT22;6523;49.758;6.120;2023-05-07T13:37:12;19.90;99.90
12911;DHT22;6523;49.758;6.120;2023-05-07T13:39:38;19.90;99.90
12911;DHT22;6523;49.758;6.120;2023-05-07T13:42:03;19.90;99.90
12911;DHT22;6523;49.758;6.120;2023-05-07T13:44:29;20.10;99.90
12911;DHT22;6523;49.758;6.120;2023-05-07T13:46:55;20.10;99.90
12911;DHT22;6523;49.758;6.120;2023-05-07T13:49:20;20.40;99.90
12911;DHT22;6523;49.758;6.120;2023-05-07T13:51:46;20.80;99.90
12911;DHT22;6523;49.758;6.120;2023-05-07T13:54:11;20.80;99.90
12911;DHT22;6523;49.758;6.120;2023-05-07T13:56:37;20.90;99.90
12911;DHT22;6523;49.758;6.120;2023-05-07T13:59:02;20.90;99.90
12911;DHT22;6523;49.758;6.120;2023-05-07T14:01:28;21.10;99.90
12911;DHT22;6523;49.758;6.120;2023-05-07T14:03:55;21.20;99.90
12911;DHT22;6523;49.758;6.120;2023-05-07T14:06:20;21.30;99.90
12911;DHT22;6523;49.758;6.120;2023-05-07T14:08:47;21.10;99.90
12911;DHT22;6523;49.758;6.120;2023-05-07T14:11:12;21.20;99.90
12911;DHT22;6523;49.758;6.120;2023-05-07T14:13:38;21.20;99.90
12911;DHT22;6523;49.758;6.120;2023-05-07T14:16:04;21.10;99.90
12911;DHT22;6523;49.758;6.120;2023-05-07T14:18:29;21.00;99.90
12911;DHT22;6523;49.758;6.120;2023-05-07T14:20:55;20.90;99.90
12911;DHT22;6523;49.758;6.120;2023-05-07T14:23:21;20.80;99.90
12911;DHT22;6523;49.758;6.120;2023-05-07T14:25:52;20.70;99.90
12911;DHT22;6523;49.758;6.120;2023-05-07T14:28:17;20.50;99.90
12911;DHT22;6523;49.758;6.120;2023-05-07T14:30:43;20.50;99.90
12911;DHT22;6523;49.758;6.120;2023-05-07T14:33:08;20.30;99.90
12911;DHT22;6523;49.758;6.120;2023-05-07T14:35:34;20.50;99.90
12911;DHT22;6523;49.758;6.120;2023-05-07T14:38:00;20.40;99.90
12911;DHT22;6523;49.758;6.120;2023-05-07T14:40:26;20.30;99.90
12911;DHT22;6523;49.758;6.120;2023-05-07T14:42:51;20.30;99.90
12911;DHT22;6523;49.758;6.120;2023-05-07T14:45:17;20.20;99.90
12911;DHT22;6523;49.758;6.120;2023-05-07T14:47:42;20.30;99.90
12911;DHT22;6523;49.758;6.120;2023-05-07T14:50:08;20.30;99.90
12911;DHT22;6523;49.758;6.120;2023-05-07T14:52:34;20.30;99.90
12911;DHT22;6523;49.758;6.120;2023-05-07T14:54:59;20.40;99.90
12911;DHT22;6523;49.758;6.120;2023-05-07T14:57:25;20.50;99.90
12911;DHT22;6523;49.758;6.120;2023-05-07T14:59:51;20.50;99.90
12911;DHT22;6523;49.758;6.120;2023-05-07T15:02:16;20.50;99.90
12911;DHT22;6523;49.758;6.120;2023-05-07T15:04:42;20.60;99.90
12911;DHT22;6523;49.758;6.120;2023-05-07T15:07:14;20.60;99.90
12911;DHT22;6523;49.758;6.120;2023-05-07T15:09:44;20.60;99.90
12911;DHT22;6523;49.758;6.120;2023-05-07T15:12:10;20.40;99.90
12911;DHT22;6523;49.758;6.120;2023-05-07T15:14:37;20.50;99.90
12911;DHT22;6523;49.758;6.120;2023-05-07T15:17:03;20.20;99.90
12911;DHT22;6523;49.758;6.120;2023-05-07T15:19:28;20.00;99.90
12911;DHT22;6523;49.758;6.120;2023-05-07T15:21:58;19.90;99.90
12911;DHT22;6523;49.758;6.120;2023-05-07T15:24:24;19.60;99.90
12911;DHT22;6523;49.758;6.120;2023-05-07T15:26:52;19.60;99.90
12911;DHT22;6523;49.758;6.120;2023-05-07T15:29:17;19.40;99.90
12911;DHT22;6523;49.758;6.120;2023-05-07T15:31:43;19.40;99.90
12911;DHT22;6523;49.758;6.120;2023-05-07T15:34:09;19.40;99.90
12911;DHT22;6523;49.758;6.120;2023-05-07T15:36:34;19.30;99.90
12911;DHT22;6523;49.758;6.120;2023-05-07T15:39:00;19.30;99.90
12911;DHT22;6523;49.758;6.120;2023-05-07T15:41:27;19.20;99.90
12911;DHT22;6523;49.758;6.120;2023-05-07T15:43:53;19.20;99.90
12911;DHT22;6523;49.758;6.120;2023-05-07T15:46:19;19.20;99.90
12911;DHT22;6523;49.758;6.120;2023-05-07T15:48:45;19.20;99.90
12911;DHT22;6523;49.758;6.120;2023-05-07T15:51:11;19.30;99.90
12911;DHT22;6523;49.758;6.120;2023-05-07T15:53:37;19.30;99.90
12911;DHT22;6523;49.758;6.120;2023-05-07T15:56:04;19.40;99.90